Track Трегубов Никита

Time Latitude Longitude Accuracy (66% radius in meters) Altitude (meters) Speed (km/hour) Bearing (degrees) Battery (%) GPS flag
04:11:14 51.900067 107.659562 1.8999999761581 700.3 0.81480526924133 251.58999633789 87 1 delete
04:11:08 51.900113 107.659638 1.8999999761581 702.2 0.91672027111053 248.21000671387 87 1 delete
04:11:03 51.900172 107.659752 1.8999999761581 702.5 0.70568418502808 257.85000610352 87 1 delete
04:10:59 51.900253 107.659847 1.8999999761581 703.4 1.1076822280884 306.73001098633 87 1 delete
04:10:55 51.900367 107.659895 1.8999999761581 704.4 1.8241755962372 94.300003051758 87 1 delete
04:10:53 51.900397 107.659887 1.8999999761581 704.1 1.9626358747482 41.770000457764 87 1 delete
04:10:47 51.900427 107.659772 1.8999999761581 702 1.9307230710983 57.159999847412 87 1 delete
04:10:43 51.900448 107.659707 1.8999999761581 698.9 2.1191112995148 137.27000427246 87 1 delete
04:10:39 51.900477 107.659638 1.8999999761581 698.3 2.1618332862854 67.169998168945 87 1 delete
04:10:34 51.900502 107.659498 1.8999999761581 696 1.6311547756195 104.30000305176 87 1 delete
04:10:33 51.900510 107.659468 1.8999999761581 695.9 1.7356433868408 147.71000671387 87 1 delete
04:10:30 51.900587 107.659423 1.7999999523163 695.8 1.7078483104706 139.74000549316 87 1 delete
04:10:25 51.900680 107.659358 1.7999999523163 694.8 2.1613185405731 137.02000427246 87 1 delete
04:10:22 51.900710 107.659283 1.7999999523163 693.6 2.2622041702271 109.34999847412 87 1 delete
04:10:20 51.900750 107.659235 1.7999999523163 693.1 2.146906375885 159.85000610352 87 1 delete
04:10:15 51.900825 107.659132 1.7000000476837 694.5 1.3212919235229 69.190002441406 87 1 delete
04:10:12 51.900848 107.659067 1.7000000476837 694.9 0.86782169342041 141.94000244141 87 1 delete
04:10:08 51.900887 107.659025 1.7000000476837 695.4 0.65369719266891 162.67999267578 87 1 delete
04:10:02 51.900930 107.659047 1.7000000476837 695.9 0.67119777202606 245.52000427246 87 1 delete
04:09:55 51.900947 107.659138 1.7999999523163 696.4 0.79627525806427 251.63999938965 87 1 delete
04:09:51 51.900957 107.659192 1.7999999523163 696.9 0.93216192722321 250.10000610352 87 1 delete
04:09:45 51.900972 107.659288 1.7999999523163 697.4 1.042312502861 265.33999633789 87 1 delete
04:09:41 51.900970 107.659368 1.7999999523163 697.6 1.201361656189 258.01000976562 87 1 delete
04:09:37 51.900970 107.659437 1.7000000476837 698.7 1.289379119873 245.17999267578 87 1 delete
04:09:31 51.900990 107.659558 1.7000000476837 699.6 1.1941555738449 264.26000976562 87 1 delete
04:09:30 51.900993 107.659582 1.7000000476837 699.8 1.0819461345673 250.08000183105 87 1 delete
04:09:22 51.901028 107.659742 1.7000000476837 701.5 0.36030554771423 277.16000366211 87 1 delete
04:09:20 51.901030 107.659773 1.7000000476837 701.7 0 318.9700012207 87 1 delete
04:09:10 51.901018 107.659798 1.5 702 0.47869166731834 266.0299987793 87 1 delete
04:09:00 51.901015 107.659848 1.1000000238419 702 0.41177776455879 26.860000610352 87 1 delete
04:08:49 51.901035 107.659870 1.7999999523163 701.4 1.6589497327805 250.08999633789 87 1 delete
04:08:45 51.901078 107.659863 1.7999999523163 701.8 2.0902869701385 161.9700012207 87 1 delete
04:08:41 51.901178 107.659868 1.7999999523163 704 1.6707882881165 202.08000183105 87 1 delete
04:08:39 51.901222 107.659875 1.8999999761581 704.5 1.5266661643982 182.55999755859 87 1 delete
04:08:36 51.901278 107.659840 1.8999999761581 705.3 1.3799703121185 144.99000549316 87 1 delete
04:08:31 51.901363 107.659742 1.8999999761581 705.9 1.1174619197845 122.51000213623 87 1 delete
04:08:29 51.901382 107.659698 1.7999999523163 706 1.0634161233902 123.73999786377 87 1 delete
04:08:25 51.901417 107.659617 1.7999999523163 705.8 0.91208779811859 124.73000335693 87 1 delete
04:08:18 51.901478 107.659522 1.7999999523163 705.2 0.49516278505325 113.5 87 1 delete
04:08:17 51.901487 107.659508 1.7000000476837 705.1 0.43236666917801 107.26999664307 87 1 delete
04:08:08 51.901495 107.659438 1.3999999761581 704 0 128.83999633789 87 1 delete
04:07:57 51.901500 107.659412 1.7999999523163 702.6 0.68046277761459 57.380001068115 87 1 delete
04:07:52 51.901507 107.659360 1.7999999523163 702 0.80605500936508 76.849998474121 87 1 delete
04:07:47 51.901508 107.659278 1.7999999523163 700.8 0.83590888977051 74.449996948242 87 1 delete
04:07:43 51.901512 107.659212 1.7999999523163 700.3 0.79267221689224 61.25 87 1 delete
04:07:37 51.901483 107.659110 1.8999999761581 699.2 0.88377803564072 70.900001525879 87 1 delete
04:07:33 51.901482 107.659058 1.8999999761581 698.8 0.98672252893448 44.450000762939 87 1 delete
04:07:26 51.901443 107.658933 1.8999999761581 697.8 0.89510196447372 50.979999542236 87 1 delete
04:07:24 51.901440 107.658912 1.8999999761581 697.6 0.84054136276245 54.569999694824 87 1 delete
04:07:16 51.901400 107.658815 1.7999999523163 696.7 0.67531555891037 41.549999237061 87 1 delete